Login to view Products
 
Monday, April 23, 2018 (22:42 UTC)
Ras Al Khaimah International Airport
ICAO: OMRK
IATA: RKT
  • METAR OMRK 232200Z 04005KT CAVOK 27/14 Q1008 A2977=
  • TAF OMRK 231656Z 2318/2500 12008KT 8000 NSC BECMG 2408/2410 33012KT BECMG 2414/2416 VRB02KT=
D:\Input Parser\Destinations\Final\16\OMRKL18001656589286188.txt